sensor_id;sensor_type;location;lat;lon;timestamp;temperature;humidity
22006;DHT22;11167;46.988;15.470;2022-07-06T00:01:52;23.00;63.10
22006;DHT22;11167;46.988;15.470;2022-07-06T00:03:53;23.00;63.10
22006;DHT22;11167;46.988;15.470;2022-07-06T00:05:54;23.00;63.10
22006;DHT22;11167;46.988;15.470;2022-07-06T00:07:55;23.00;63.10
22006;DHT22;11167;46.988;15.470;2022-07-06T00:09:56;22.90;63.10
22006;DHT22;11167;46.988;15.470;2022-07-06T00:11:59;22.90;63.10
22006;DHT22;11167;46.988;15.470;2022-07-06T00:14:00;22.90;63.10
22006;DHT22;11167;46.988;15.470;2022-07-06T00:16:01;22.80;63.10
22006;DHT22;11167;46.988;15.470;2022-07-06T00:18:03;22.80;63.10
22006;DHT22;11167;46.988;15.470;2022-07-06T00:20:05;22.80;63.10
22006;DHT22;11167;46.988;15.470;2022-07-06T00:22:06;22.80;63.10
22006;DHT22;11167;46.988;15.470;2022-07-06T00:24:08;22.70;63.10
22006;DHT22;11167;46.988;15.470;2022-07-06T00:26:09;22.70;63.10
22006;DHT22;11167;46.988;15.470;2022-07-06T00:28:11;22.70;63.10
22006;DHT22;11167;46.988;15.470;2022-07-06T00:30:12;22.70;63.20
22006;DHT22;11167;46.988;15.470;2022-07-06T00:32:13;22.60;63.20
22006;DHT22;11167;46.988;15.470;2022-07-06T00:34:14;22.60;63.10
22006;DHT22;11167;46.988;15.470;2022-07-06T00:36:16;22.60;63.20
22006;DHT22;11167;46.988;15.470;2022-07-06T00:38:17;22.60;63.20
22006;DHT22;11167;46.988;15.470;2022-07-06T00:40:19;22.50;63.20
22006;DHT22;11167;46.988;15.470;2022-07-06T00:42:20;22.50;63.20
22006;DHT22;11167;46.988;15.470;2022-07-06T00:44:21;22.50;63.20
22006;DHT22;11167;46.988;15.470;2022-07-06T00:46:28;22.50;63.20
22006;DHT22;11167;46.988;15.470;2022-07-06T00:48:30;22.50;63.30
22006;DHT22;11167;46.988;15.470;2022-07-06T00:50:33;22.40;63.20
22006;DHT22;11167;46.988;15.470;2022-07-06T00:52:34;22.40;63.20
22006;DHT22;11167;46.988;15.470;2022-07-06T00:54:36;22.40;63.30
22006;DHT22;11167;46.988;15.470;2022-07-06T00:56:37;22.40;63.30
22006;DHT22;11167;46.988;15.470;2022-07-06T00:58:39;22.30;63.20
22006;DHT22;11167;46.988;15.470;2022-07-06T01:00:42;22.30;63.30
22006;DHT22;11167;46.988;15.470;2022-07-06T01:02:45;22.30;63.30
22006;DHT22;11167;46.988;15.470;2022-07-06T01:04:47;22.30;63.30
22006;DHT22;11167;46.988;15.470;2022-07-06T01:06:48;22.20;63.30
22006;DHT22;11167;46.988;15.470;2022-07-06T01:08:49;22.20;63.40
22006;DHT22;11167;46.988;15.470;2022-07-06T01:10:51;22.20;63.30
22006;DHT22;11167;46.988;15.470;2022-07-06T01:12:52;22.20;64.10
22006;DHT22;11167;46.988;15.470;2022-07-06T01:14:54;22.20;63.70
22006;DHT22;11167;46.988;15.470;2022-07-06T01:16:55;22.10;63.30
22006;DHT22;11167;46.988;15.470;2022-07-06T01:18:57;22.10;63.50
22006;DHT22;11167;46.988;15.470;2022-07-06T01:21:11;22.10;63.40
22006;DHT22;11167;46.988;15.470;2022-07-06T01:23:09;22.00;63.30
22006;DHT22;11167;46.988;15.470;2022-07-06T01:25:10;22.00;63.30
22006;DHT22;11167;46.988;15.470;2022-07-06T01:27:13;22.00;63.40
22006;DHT22;11167;46.988;15.470;2022-07-06T01:29:14;22.00;64.00
22006;DHT22;11167;46.988;15.470;2022-07-06T01:31:18;21.90;63.50
22006;DHT22;11167;46.988;15.470;2022-07-06T01:33:19;21.90;63.40
22006;DHT22;11167;46.988;15.470;2022-07-06T01:35:20;21.90;63.50
22006;DHT22;11167;46.988;15.470;2022-07-06T01:37:22;21.90;63.60
22006;DHT22;11167;46.988;15.470;2022-07-06T01:39:23;21.80;63.50
22006;DHT22;11167;46.988;15.470;2022-07-06T01:41:25;21.80;63.60
22006;DHT22;11167;46.988;15.470;2022-07-06T01:43:26;21.80;63.60
22006;DHT22;11167;46.988;15.470;2022-07-06T01:45:30;21.80;63.60
22006;DHT22;11167;46.988;15.470;2022-07-06T01:47:32;21.80;63.60
22006;DHT22;11167;46.988;15.470;2022-07-06T01:49:33;21.70;63.50
22006;DHT22;11167;46.988;15.470;2022-07-06T01:51:35;21.70;63.60
22006;DHT22;11167;46.988;15.470;2022-07-06T01:53:36;21.70;63.60
22006;DHT22;11167;46.988;15.470;2022-07-06T01:55:37;21.70;63.70
22006;DHT22;11167;46.988;15.470;2022-07-06T01:57:38;21.70;63.60
22006;DHT22;11167;46.988;15.470;2022-07-06T01:59:39;21.60;63.60
22006;DHT22;11167;46.988;15.470;2022-07-06T02:01:40;21.60;63.70
22006;DHT22;11167;46.988;15.470;2022-07-06T02:03:42;21.60;63.70
22006;DHT22;11167;46.988;15.470;2022-07-06T02:05:43;21.60;63.80
22006;DHT22;11167;46.988;15.470;2022-07-06T02:07:45;21.60;64.40
22006;DHT22;11167;46.988;15.470;2022-07-06T02:09:46;21.50;63.70
22006;DHT22;11167;46.988;15.470;2022-07-06T02:11:47;21.50;63.80
22006;DHT22;11167;46.988;15.470;2022-07-06T02:13:48;21.50;63.80
22006;DHT22;11167;46.988;15.470;2022-07-06T02:15:49;21.50;63.80
22006;DHT22;11167;46.988;15.470;2022-07-06T02:17:50;21.50;63.90
22006;DHT22;11167;46.988;15.470;2022-07-06T02:19:52;21.40;63.80
22006;DHT22;11167;46.988;15.470;2022-07-06T02:21:53;21.40;63.80
22006;DHT22;11167;46.988;15.470;2022-07-06T02:23:54;21.40;63.80
22006;DHT22;11167;46.988;15.470;2022-07-06T02:25:55;21.40;63.80
22006;DHT22;11167;46.988;15.470;2022-07-06T02:27:57;21.40;63.90
22006;DHT22;11167;46.988;15.470;2022-07-06T02:29:59;21.30;63.90
22006;DHT22;11167;46.988;15.470;2022-07-06T02:32:00;21.30;63.90
22006;DHT22;11167;46.988;15.470;2022-07-06T02:34:01;21.30;63.90
22006;DHT22;11167;46.988;15.470;2022-07-06T02:36:02;21.30;64.00
22006;DHT22;11167;46.988;15.470;2022-07-06T02:38:06;21.20;63.90
22006;DHT22;11167;46.988;15.470;2022-07-06T02:40:08;21.20;64.00
22006;DHT22;11167;46.988;15.470;2022-07-06T02:42:09;21.20;64.00
22006;DHT22;11167;46.988;15.470;2022-07-06T02:44:10;21.20;64.00
22006;DHT22;11167;46.988;15.470;2022-07-06T02:46:12;21.20;64.00
22006;DHT22;11167;46.988;15.470;2022-07-06T02:48:13;21.10;64.00
22006;DHT22;11167;46.988;15.470;2022-07-06T02:50:14;21.10;64.00
22006;DHT22;11167;46.988;15.470;2022-07-06T02:52:15;21.10;64.00
22006;DHT22;11167;46.988;15.470;2022-07-06T02:54:16;21.10;64.00
22006;DHT22;11167;46.988;15.470;2022-07-06T02:56:18;21.10;64.20
22006;DHT22;11167;46.988;15.470;2022-07-06T02:58:19;21.00;64.00
22006;DHT22;11167;46.988;15.470;2022-07-06T03:00:20;21.00;64.20
22006;DHT22;11167;46.988;15.470;2022-07-06T03:02:21;21.00;64.10
22006;DHT22;11167;46.988;15.470;2022-07-06T03:04:22;21.00;64.20
22006;DHT22;11167;46.988;15.470;2022-07-06T03:06:23;21.00;64.20
22006;DHT22;11167;46.988;15.470;2022-07-06T03:08:24;21.00;64.80
22006;DHT22;11167;46.988;15.470;2022-07-06T03:10:25;20.90;64.10
22006;DHT22;11167;46.988;15.470;2022-07-06T03:12:27;20.90;64.80
22006;DHT22;11167;46.988;15.470;2022-07-06T03:14:28;20.90;64.20
22006;DHT22;11167;46.988;15.470;2022-07-06T03:16:29;20.90;64.30
22006;DHT22;11167;46.988;15.470;2022-07-06T03:18:31;20.90;64.20
22006;DHT22;11167;46.988;15.470;2022-07-06T03:20:32;20.80;64.20
22006;DHT22;11167;46.988;15.470;2022-07-06T03:22:33;20.80;64.40
22006;DHT22;11167;46.988;15.470;2022-07-06T03:24:34;20.80;64.20
22006;DHT22;11167;46.988;15.470;2022-07-06T03:26:41;20.80;64.30
22006;DHT22;11167;46.988;15.470;2022-07-06T03:29:01;20.70;64.30
22006;DHT22;11167;46.988;15.470;2022-07-06T03:31:02;20.70;64.30
22006;DHT22;11167;46.988;15.470;2022-07-06T03:33:03;20.70;65.10
22006;DHT22;11167;46.988;15.470;2022-07-06T03:35:05;20.70;64.50
22006;DHT22;11167;46.988;15.470;2022-07-06T03:37:07;20.70;64.40
22006;DHT22;11167;46.988;15.470;2022-07-06T03:39:08;20.60;64.50
22006;DHT22;11167;46.988;15.470;2022-07-06T03:41:10;20.60;64.50
22006;DHT22;11167;46.988;15.470;2022-07-06T03:43:11;20.70;64.60
22006;DHT22;11167;46.988;15.470;2022-07-06T03:45:12;20.60;64.40
22006;DHT22;11167;46.988;15.470;2022-07-06T03:47:13;20.60;64.40
22006;DHT22;11167;46.988;15.470;2022-07-06T03:49:14;20.60;64.50
22006;DHT22;11167;46.988;15.470;2022-07-06T03:51:15;20.60;64.50
22006;DHT22;11167;46.988;15.470;2022-07-06T03:53:16;20.50;64.50
22006;DHT22;11167;46.988;15.470;2022-07-06T03:55:19;20.50;64.50
22006;DHT22;11167;46.988;15.470;2022-07-06T03:57:20;20.50;64.50
22006;DHT22;11167;46.988;15.470;2022-07-06T03:59:22;20.50;64.60
22006;DHT22;11167;46.988;15.470;2022-07-06T04:01:23;20.50;64.50
22006;DHT22;11167;46.988;15.470;2022-07-06T04:03:24;20.40;64.50
22006;DHT22;11167;46.988;15.470;2022-07-06T04:05:25;20.40;64.50
22006;DHT22;11167;46.988;15.470;2022-07-06T04:07:26;20.40;64.70
22006;DHT22;11167;46.988;15.470;2022-07-06T04:09:28;20.40;64.50
22006;DHT22;11167;46.988;15.470;2022-07-06T04:11:29;20.40;64.70
22006;DHT22;11167;46.988;15.470;2022-07-06T04:13:30;20.40;64.70
22006;DHT22;11167;46.988;15.470;2022-07-06T04:15:31;20.40;64.70
22006;DHT22;11167;46.988;15.470;2022-07-06T04:17:32;20.30;64.70
22006;DHT22;11167;46.988;15.470;2022-07-06T04:19:52;20.30;64.70
22006;DHT22;11167;46.988;15.470;2022-07-06T04:21:53;20.30;64.70
22006;DHT22;11167;46.988;15.470;2022-07-06T04:23:54;20.30;64.80
22006;DHT22;11167;46.988;15.470;2022-07-06T04:25:56;20.30;64.70
22006;DHT22;11167;46.988;15.470;2022-07-06T04:27:57;20.30;64.80
22006;DHT22;11167;46.988;15.470;2022-07-06T04:29:58;20.20;64.80
22006;DHT22;11167;46.988;15.470;2022-07-06T04:31:59;20.20;64.70
22006;DHT22;11167;46.988;15.470;2022-07-06T04:34:00;20.20;64.70
22006;DHT22;11167;46.988;15.470;2022-07-06T04:36:01;20.20;64.00
22006;DHT22;11167;46.988;15.470;2022-07-06T04:38:02;20.20;64.70
22006;DHT22;11167;46.988;15.470;2022-07-06T04:40:04;20.20;64.80
22006;DHT22;11167;46.988;15.470;2022-07-06T04:42:06;20.20;64.80
22006;DHT22;11167;46.988;15.470;2022-07-06T04:44:07;20.20;64.80
22006;DHT22;11167;46.988;15.470;2022-07-06T04:46:09;20.10;64.70
22006;DHT22;11167;46.988;15.470;2022-07-06T04:48:10;20.10;64.90
22006;DHT22;11167;46.988;15.470;2022-07-06T04:50:11;20.10;64.80
22006;DHT22;11167;46.988;15.470;2022-07-06T04:52:13;20.10;64.90
22006;DHT22;11167;46.988;15.470;2022-07-06T04:54:14;20.10;64.80
22006;DHT22;11167;46.988;15.470;2022-07-06T04:56:15;20.10;64.90
22006;DHT22;11167;46.988;15.470;2022-07-06T04:58:16;20.10;64.90
22006;DHT22;11167;46.988;15.470;2022-07-06T05:00:18;20.10;64.90
22006;DHT22;11167;46.988;15.470;2022-07-06T05:02:19;20.10;65.00
22006;DHT22;11167;46.988;15.470;2022-07-06T05:04:20;20.10;65.00
22006;DHT22;11167;46.988;15.470;2022-07-06T05:06:21;20.10;65.00
22006;DHT22;11167;46.988;15.470;2022-07-06T05:08:22;20.10;64.90
22006;DHT22;11167;46.988;15.470;2022-07-06T05:10:23;20.10;65.00
22006;DHT22;11167;46.988;15.470;2022-07-06T05:12:25;20.10;65.10
22006;DHT22;11167;46.988;15.470;2022-07-06T05:14:26;20.10;65.00
22006;DHT22;11167;46.988;15.470;2022-07-06T05:16:27;20.10;65.10
22006;DHT22;11167;46.988;15.470;2022-07-06T05:18:28;20.10;65.10
22006;DHT22;11167;46.988;15.470;2022-07-06T05:20:30;20.10;65.00
22006;DHT22;11167;46.988;15.470;2022-07-06T05:22:32;20.00;65.00
22006;DHT22;11167;46.988;15.470;2022-07-06T05:24:33;20.00;65.00
22006;DHT22;11167;46.988;15.470;2022-07-06T05:26:34;20.00;65.00
22006;DHT22;11167;46.988;15.470;2022-07-06T05:28:35;20.00;65.00
22006;DHT22;11167;46.988;15.470;2022-07-06T05:30:36;20.00;65.00
22006;DHT22;11167;46.988;15.470;2022-07-06T05:32:37;20.00;65.00
22006;DHT22;11167;46.988;15.470;2022-07-06T05:34:39;20.00;65.10
22006;DHT22;11167;46.988;15.470;2022-07-06T05:36:42;20.00;65.10
22006;DHT22;11167;46.988;15.470;2022-07-06T05:38:44;20.00;65.10
22006;DHT22;11167;46.988;15.470;2022-07-06T05:40:46;20.00;65.10
22006;DHT22;11167;46.988;15.470;2022-07-06T05:42:47;20.00;65.20
22006;DHT22;11167;46.988;15.470;2022-07-06T05:44:48;20.00;65.20
22006;DHT22;11167;46.988;15.470;2022-07-06T05:46:49;20.00;66.00
22006;DHT22;11167;46.988;15.470;2022-07-06T05:48:50;20.00;65.20
22006;DHT22;11167;46.988;15.470;2022-07-06T05:51:10;20.00;65.20
22006;DHT22;11167;46.988;15.470;2022-07-06T05:53:13;20.00;65.20
22006;DHT22;11167;46.988;15.470;2022-07-06T05:55:15;20.00;65.20
22006;DHT22;11167;46.988;15.470;2022-07-06T05:57:18;20.00;65.20
22006;DHT22;11167;46.988;15.470;2022-07-06T05:59:19;20.00;65.20
22006;DHT22;11167;46.988;15.470;2022-07-06T06:01:20;20.00;65.20
22006;DHT22;11167;46.988;15.470;2022-07-06T06:03:22;20.00;65.30
22006;DHT22;11167;46.988;15.470;2022-07-06T06:05:23;20.00;65.30
22006;DHT22;11167;46.988;15.470;2022-07-06T06:07:24;20.00;65.20
22006;DHT22;11167;46.988;15.470;2022-07-06T06:09:25;20.00;65.30
22006;DHT22;11167;46.988;15.470;2022-07-06T06:11:26;20.00;65.20
22006;DHT22;11167;46.988;15.470;2022-07-06T06:13:28;20.00;65.30
22006;DHT22;11167;46.988;15.470;2022-07-06T06:15:29;20.00;65.20
22006;DHT22;11167;46.988;15.470;2022-07-06T06:17:31;20.00;65.20
22006;DHT22;11167;46.988;15.470;2022-07-06T06:19:32;20.00;65.30
22006;DHT22;11167;46.988;15.470;2022-07-06T06:21:35;20.00;65.30
22006;DHT22;11167;46.988;15.470;2022-07-06T06:23:38;20.00;65.30
22006;DHT22;11167;46.988;15.470;2022-07-06T06:25:39;20.00;65.40
22006;DHT22;11167;46.988;15.470;2022-07-06T06:27:40;20.00;65.40
22006;DHT22;11167;46.988;15.470;2022-07-06T06:29:41;20.00;65.40
22006;DHT22;11167;46.988;15.470;2022-07-06T06:31:44;20.00;65.40
22006;DHT22;11167;46.988;15.470;2022-07-06T06:33:46;20.00;65.40
22006;DHT22;11167;46.988;15.470;2022-07-06T06:35:53;20.00;65.40
22006;DHT22;11167;46.988;15.470;2022-07-06T06:37:51;20.00;65.20
22006;DHT22;11167;46.988;15.470;2022-07-06T06:39:52;20.00;65.40
22006;DHT22;11167;46.988;15.470;2022-07-06T06:41:53;20.00;65.40
22006;DHT22;11167;46.988;15.470;2022-07-06T06:43:54;20.00;65.50
22006;DHT22;11167;46.988;15.470;2022-07-06T06:45:55;20.10;65.50
22006;DHT22;11167;46.988;15.470;2022-07-06T06:47:59;20.10;65.60
22006;DHT22;11167;46.988;15.470;2022-07-06T06:50:00;20.10;66.40
22006;DHT22;11167;46.988;15.470;2022-07-06T06:52:01;20.10;65.60
22006;DHT22;11167;46.988;15.470;2022-07-06T06:54:03;20.10;65.50
22006;DHT22;11167;46.988;15.470;2022-07-06T06:56:13;20.10;65.60
22006;DHT22;11167;46.988;15.470;2022-07-06T07:00:23;20.10;65.50
22006;DHT22;11167;46.988;15.470;2022-07-06T07:02:24;20.10;66.40
22006;DHT22;11167;46.988;15.470;2022-07-06T07:04:25;20.10;65.60
22006;DHT22;11167;46.988;15.470;2022-07-06T07:06:26;20.10;66.00
22006;DHT22;11167;46.988;15.470;2022-07-06T07:08:27;20.10;65.60
22006;DHT22;11167;46.988;15.470;2022-07-06T07:10:28;20.10;65.60
22006;DHT22;11167;46.988;15.470;2022-07-06T07:12:30;20.10;65.60
22006;DHT22;11167;46.988;15.470;2022-07-06T07:14:32;20.10;65.70
22006;DHT22;11167;46.988;15.470;2022-07-06T07:16:33;20.20;65.80
22006;DHT22;11167;46.988;15.470;2022-07-06T07:18:34;20.20;65.70
22006;DHT22;11167;46.988;15.470;2022-07-06T07:20:35;20.20;65.70
22006;DHT22;11167;46.988;15.470;2022-07-06T07:22:36;20.20;65.70
22006;DHT22;11167;46.988;15.470;2022-07-06T07:24:38;20.20;65.70
22006;DHT22;11167;46.988;15.470;2022-07-06T07:26:39;20.20;65.70
22006;DHT22;11167;46.988;15.470;2022-07-06T07:28:40;20.30;65.80
22006;DHT22;11167;46.988;15.470;2022-07-06T07:30:41;20.30;65.80
22006;DHT22;11167;46.988;15.470;2022-07-06T07:32:43;20.30;65.80
22006;DHT22;11167;46.988;15.470;2022-07-06T07:34:44;20.30;65.80
22006;DHT22;11167;46.988;15.470;2022-07-06T07:36:45;20.30;65.80
22006;DHT22;11167;46.988;15.470;2022-07-06T07:38:47;20.40;65.90
22006;DHT22;11167;46.988;15.470;2022-07-06T07:40:48;20.40;66.00
22006;DHT22;11167;46.988;15.470;2022-07-06T07:42:49;20.40;66.20
22006;DHT22;11167;46.988;15.470;2022-07-06T07:44:51;20.40;66.20
22006;DHT22;11167;46.988;15.470;2022-07-06T07:46:52;20.40;66.00
22006;DHT22;11167;46.988;15.470;2022-07-06T07:48:53;20.40;66.00
22006;DHT22;11167;46.988;15.470;2022-07-06T07:50:55;20.50;66.00
22006;DHT22;11167;46.988;15.470;2022-07-06T07:52:56;20.40;66.00
22006;DHT22;11167;46.988;15.470;2022-07-06T07:54:58;20.50;66.10
22006;DHT22;11167;46.988;15.470;2022-07-06T07:56:59;20.50;66.20
22006;DHT22;11167;46.988;15.470;2022-07-06T07:59:00;20.50;66.10
22006;DHT22;11167;46.988;15.470;2022-07-06T08:01:01;20.50;66.20
22006;DHT22;11167;46.988;15.470;2022-07-06T08:03:03;20.60;66.30
22006;DHT22;11167;46.988;15.470;2022-07-06T08:05:05;20.60;66.20
22006;DHT22;11167;46.988;15.470;2022-07-06T08:07:07;20.60;66.30
22006;DHT22;11167;46.988;15.470;2022-07-06T08:09:08;20.60;66.20
22006;DHT22;11167;46.988;15.470;2022-07-06T08:11:09;20.60;66.20
22006;DHT22;11167;46.988;15.470;2022-07-06T08:13:11;20.70;66.30
22006;DHT22;11167;46.988;15.470;2022-07-06T08:15:12;20.70;66.20
22006;DHT22;11167;46.988;15.470;2022-07-06T08:17:13;20.70;66.30
22006;DHT22;11167;46.988;15.470;2022-07-06T08:19:14;20.70;66.40
22006;DHT22;11167;46.988;15.470;2022-07-06T08:21:16;20.80;66.50
22006;DHT22;11167;46.988;15.470;2022-07-06T08:23:17;20.80;67.10
22006;DHT22;11167;46.988;15.470;2022-07-06T08:25:18;20.80;66.40
22006;DHT22;11167;46.988;15.470;2022-07-06T08:27:19;20.80;66.40
22006;DHT22;11167;46.988;15.470;2022-07-06T08:29:20;20.90;66.50
22006;DHT22;11167;46.988;15.470;2022-07-06T08:31:21;20.90;66.50
22006;DHT22;11167;46.988;15.470;2022-07-06T08:33:23;20.90;66.50
22006;DHT22;11167;46.988;15.470;2022-07-06T08:35:24;20.90;66.50
22006;DHT22;11167;46.988;15.470;2022-07-06T08:37:25;21.00;66.60
22006;DHT22;11167;46.988;15.470;2022-07-06T08:39:26;21.00;66.60
22006;DHT22;11167;46.988;15.470;2022-07-06T08:41:29;21.00;66.60
22006;DHT22;11167;46.988;15.470;2022-07-06T08:43:34;21.10;66.60
22006;DHT22;11167;46.988;15.470;2022-07-06T08:45:36;21.10;66.60
22006;DHT22;11167;46.988;15.470;2022-07-06T08:47:39;21.10;66.60
22006;DHT22;11167;46.988;15.470;2022-07-06T08:49:43;21.10;67.40
22006;DHT22;11167;46.988;15.470;2022-07-06T08:51:45;21.20;66.60
22006;DHT22;11167;46.988;15.470;2022-07-06T08:53:46;21.20;66.60
22006;DHT22;11167;46.988;15.470;2022-07-06T08:55:50;21.20;66.60
22006;DHT22;11167;46.988;15.470;2022-07-06T08:57:51;21.20;66.60
22006;DHT22;11167;46.988;15.470;2022-07-06T08:59:53;21.30;66.70
22006;DHT22;11167;46.988;15.470;2022-07-06T09:01:54;21.30;66.70
22006;DHT22;11167;46.988;15.470;2022-07-06T09:03:56;21.30;66.70
22006;DHT22;11167;46.988;15.470;2022-07-06T09:05:59;21.40;66.70
22006;DHT22;11167;46.988;15.470;2022-07-06T09:08:02;21.40;66.30
22006;DHT22;11167;46.988;15.470;2022-07-06T09:10:05;21.40;66.60
22006;DHT22;11167;46.988;15.470;2022-07-06T09:12:11;21.50;66.80
22006;DHT22;11167;46.988;15.470;2022-07-06T09:14:14;21.50;66.70
22006;DHT22;11167;46.988;15.470;2022-07-06T09:16:16;21.50;66.60
22006;DHT22;11167;46.988;15.470;2022-07-06T09:18:22;21.60;66.70
22006;DHT22;11167;46.988;15.470;2022-07-06T09:20:23;21.60;66.70
22006;DHT22;11167;46.988;15.470;2022-07-06T09:22:30;21.60;66.70
22006;DHT22;11167;46.988;15.470;2022-07-06T09:24:32;21.70;66.70
22006;DHT22;11167;46.988;15.470;2022-07-06T09:26:33;21.70;66.70
22006;DHT22;11167;46.988;15.470;2022-07-06T09:28:43;21.70;66.70
22006;DHT22;11167;46.988;15.470;2022-07-06T09:30:44;21.80;66.70
22006;DHT22;11167;46.988;15.470;2022-07-06T09:32:47;21.80;66.70
22006;DHT22;11167;46.988;15.470;2022-07-06T09:34:50;21.80;66.70
22006;DHT22;11167;46.988;15.470;2022-07-06T09:36:51;21.90;66.70
22006;DHT22;11167;46.988;15.470;2022-07-06T09:38:52;21.90;66.70
22006;DHT22;11167;46.988;15.470;2022-07-06T09:40:54;22.00;66.80
22006;DHT22;11167;46.988;15.470;2022-07-06T09:43:15;22.00;66.70
22006;DHT22;11167;46.988;15.470;2022-07-06T09:45:21;22.00;66.80
22006;DHT22;11167;46.988;15.470;2022-07-06T09:47:23;22.10;66.70
22006;DHT22;11167;46.988;15.470;2022-07-06T09:49:27;22.10;66.70
22006;DHT22;11167;46.988;15.470;2022-07-06T09:51:30;22.20;66.70
22006;DHT22;11167;46.988;15.470;2022-07-06T09:53:31;22.20;66.70
22006;DHT22;11167;46.988;15.470;2022-07-06T09:55:34;22.30;66.80
22006;DHT22;11167;46.988;15.470;2022-07-06T09:57:35;22.30;66.70
22006;DHT22;11167;46.988;15.470;2022-07-06T09:59:37;22.30;66.70
22006;DHT22;11167;46.988;15.470;2022-07-06T10:01:39;22.40;67.60
22006;DHT22;11167;46.988;15.470;2022-07-06T10:03:41;22.40;66.80
22006;DHT22;11167;46.988;15.470;2022-07-06T10:05:44;22.50;66.70
22006;DHT22;11167;46.988;15.470;2022-07-06T10:07:50;22.50;66.80
22006;DHT22;11167;46.988;15.470;2022-07-06T10:09:52;22.60;66.80
22006;DHT22;11167;46.988;15.470;2022-07-06T10:11:57;22.60;66.80
22006;DHT22;11167;46.988;15.470;2022-07-06T10:14:00;22.60;66.80
22006;DHT22;11167;46.988;15.470;2022-07-06T10:16:02;22.70;66.80
22006;DHT22;11167;46.988;15.470;2022-07-06T10:18:05;22.70;66.80
22006;DHT22;11167;46.988;15.470;2022-07-06T10:20:08;22.80;66.80
22006;DHT22;11167;46.988;15.470;2022-07-06T10:22:09;22.80;66.80
22006;DHT22;11167;46.988;15.470;2022-07-06T10:24:13;22.80;67.60
22006;DHT22;11167;46.988;15.470;2022-07-06T10:26:16;22.90;66.80
22006;DHT22;11167;46.988;15.470;2022-07-06T10:28:19;22.90;66.80
22006;DHT22;11167;46.988;15.470;2022-07-06T10:30:22;23.00;66.80
22006;DHT22;11167;46.988;15.470;2022-07-06T10:34:25;23.10;66.10
22006;DHT22;11167;46.988;15.470;2022-07-06T10:36:27;23.10;66.80
22006;DHT22;11167;46.988;15.470;2022-07-06T10:38:31;23.20;66.80
22006;DHT22;11167;46.988;15.470;2022-07-06T10:40:41;23.20;66.80
22006;DHT22;11167;46.988;15.470;2022-07-06T10:43:00;23.20;66.80
22006;DHT22;11167;46.988;15.470;2022-07-06T10:45:02;23.30;66.90
22006;DHT22;11167;46.988;15.470;2022-07-06T10:47:03;23.40;66.40
22006;DHT22;11167;46.988;15.470;2022-07-06T10:49:14;23.40;66.90
22006;DHT22;11167;46.988;15.470;2022-07-06T10:51:11;23.40;67.90
22006;DHT22;11167;46.988;15.470;2022-07-06T10:53:15;23.50;67.00
22006;DHT22;11167;46.988;15.470;2022-07-06T10:57:50;23.60;67.00
22006;DHT22;11167;46.988;15.470;2022-07-06T10:59:38;23.60;66.90
22006;DHT22;11167;46.988;15.470;2022-07-06T11:01:40;23.70;67.00
22006;DHT22;11167;46.988;15.470;2022-07-06T11:03:43;23.70;66.90
22006;DHT22;11167;46.988;15.470;2022-07-06T11:05:45;23.80;67.00
22006;DHT22;11167;46.988;15.470;2022-07-06T11:07:49;23.80;66.90
22006;DHT22;11167;46.988;15.470;2022-07-06T11:09:56;23.90;66.90
22006;DHT22;11167;46.988;15.470;2022-07-06T11:11:58;23.90;66.90
22006;DHT22;11167;46.988;15.470;2022-07-06T11:16:07;24.00;66.90
22006;DHT22;11167;46.988;15.470;2022-07-06T11:18:12;24.10;66.90
22006;DHT22;11167;46.988;15.470;2022-07-06T11:20:14;24.10;67.00
22006;DHT22;11167;46.988;15.470;2022-07-06T11:22:15;24.20;66.80
22006;DHT22;11167;46.988;15.470;2022-07-06T11:24:20;24.20;66.80
22006;DHT22;11167;46.988;15.470;2022-07-06T11:26:22;24.20;66.80
22006;DHT22;11167;46.988;15.470;2022-07-06T11:28:25;24.30;66.80
22006;DHT22;11167;46.988;15.470;2022-07-06T11:30:27;24.40;66.80
22006;DHT22;11167;46.988;15.470;2022-07-06T11:32:28;24.40;66.80
22006;DHT22;11167;46.988;15.470;2022-07-06T11:34:31;24.40;66.80
22006;DHT22;11167;46.988;15.470;2022-07-06T11:36:33;24.50;66.80
22006;DHT22;11167;46.988;15.470;2022-07-06T11:38:35;24.50;66.80
22006;DHT22;11167;46.988;15.470;2022-07-06T11:40:39;24.60;66.90
22006;DHT22;11167;46.988;15.470;2022-07-06T11:42:40;24.60;67.70
22006;DHT22;11167;46.988;15.470;2022-07-06T11:44:42;24.70;66.80
22006;DHT22;11167;46.988;15.470;2022-07-06T11:46:43;24.70;66.80
22006;DHT22;11167;46.988;15.470;2022-07-06T11:48:53;24.80;66.80
22006;DHT22;11167;46.988;15.470;2022-07-06T11:51:03;24.80;66.70
22006;DHT22;11167;46.988;15.470;2022-07-06T11:53:04;24.80;66.60
22006;DHT22;11167;46.988;15.470;2022-07-06T11:55:06;24.90;66.70
22006;DHT22;11167;46.988;15.470;2022-07-06T11:57:08;25.00;66.70
22006;DHT22;11167;46.988;15.470;2022-07-06T11:59:11;25.00;66.70
22006;DHT22;11167;46.988;15.470;2022-07-06T12:01:13;25.00;66.60
22006;DHT22;11167;46.988;15.470;2022-07-06T12:03:15;25.10;66.70
22006;DHT22;11167;46.988;15.470;2022-07-06T12:05:31;25.20;66.70
22006;DHT22;11167;46.988;15.470;2022-07-06T12:07:32;25.20;66.60
22006;DHT22;11167;46.988;15.470;2022-07-06T12:09:34;25.20;66.60
22006;DHT22;11167;46.988;15.470;2022-07-06T12:11:36;25.30;66.80
22006;DHT22;11167;46.988;15.470;2022-07-06T12:13:38;25.30;66.80
22006;DHT22;11167;46.988;15.470;2022-07-06T12:15:40;25.40;66.80
22006;DHT22;11167;46.988;15.470;2022-07-06T12:17:46;25.40;66.80
22006;DHT22;11167;46.988;15.470;2022-07-06T12:19:52;25.50;66.90
22006;DHT22;11167;46.988;15.470;2022-07-06T12:21:51;25.50;66.80
22006;DHT22;11167;46.988;15.470;2022-07-06T12:23:54;25.60;66.90
22006;DHT22;11167;46.988;15.470;2022-07-06T12:25:56;25.60;66.80
22006;DHT22;11167;46.988;15.470;2022-07-06T12:27:57;25.70;66.90
22006;DHT22;11167;46.988;15.470;2022-07-06T12:30:10;25.70;66.80
22006;DHT22;11167;46.988;15.470;2022-07-06T12:32:31;25.80;66.90
22006;DHT22;11167;46.988;15.470;2022-07-06T12:34:34;25.90;66.90
22006;DHT22;11167;46.988;15.470;2022-07-06T12:36:47;25.80;66.80
22006;DHT22;11167;46.988;15.470;2022-07-06T12:38:47;25.90;66.80
22006;DHT22;11167;46.988;15.470;2022-07-06T12:40:49;25.90;66.80
22006;DHT22;11167;46.988;15.470;2022-07-06T12:42:50;25.90;67.60
22006;DHT22;11167;46.988;15.470;2022-07-06T12:44:52;26.00;66.80
22006;DHT22;11167;46.988;15.470;2022-07-06T12:47:07;26.00;66.90
22006;DHT22;11167;46.988;15.470;2022-07-06T12:49:22;26.00;66.70